Time;durP1;ratioP1;P1;durP2;ratioP2;P2;SDS_P1;SDS_P2;PMS_P1;PMS_P2;Temp;Humidity;BMP_temperature;BMP_pressure;BME280_temperature;BME280_humidity;BME280_pressure;Samples;Min_cycle;Max_cycle;Signal;HPM_P1;HPM_P2
2023/05/04 00:00:40;;;;;;;17.20;11.43;;;7.40;99.90;;;;;;2086231;28;20192;-67
2023/05/04 00:01:42;;;;;;;15.07;11.23;;;7.30;99.90;;;;;;2091766;28;20099;-67
2023/05/04 00:02:42;;;;;;;17.25;11.70;;;7.30;99.90;;;;;;2086912;28;20029;-68
2023/05/04 00:03:43;;;;;;;17.45;12.15;;;7.30;99.90;;;;;;2086369;28;20044;-67
2023/05/04 00:04:44;;;;;;;17.55;12.20;;;7.30;99.90;;;;;;2089507;28;20036;-67
2023/05/04 00:05:44;;;;;;;20.55;13.40;;;7.20;99.90;;;;;;2087991;28;20500;-67
2023/05/04 00:06:45;;;;;;;17.67;12.23;;;7.30;99.90;;;;;;2090011;28;20031;-67
2023/05/04 00:07:45;;;;;;;20.13;13.38;;;7.20;99.90;;;;;;2091296;28;20021;-67
2023/05/04 00:08:46;;;;;;;18.27;13.20;;;7.20;99.90;;;;;;2092704;28;20036;-66
2023/05/04 00:09:46;;;;;;;17.02;12.52;;;7.20;99.90;;;;;;2086044;28;20426;-67
2023/05/04 00:10:47;;;;;;;19.17;12.70;;;7.20;99.90;;;;;;2090677;28;20474;-67
2023/05/04 00:11:47;;;;;;;16.95;12.27;;;7.20;99.90;;;;;;2090507;28;20047;-67
2023/05/04 00:12:48;;;;;;;17.75;12.07;;;7.20;99.90;;;;;;2087147;28;20220;-67
2023/05/04 00:13:49;;;;;;;16.23;11.73;;;7.10;99.90;;;;;;2093546;28;20040;-67
2023/05/04 00:14:49;;;;;;;17.15;11.23;;;7.20;99.90;;;;;;2086645;28;20108;-67
2023/05/04 00:15:50;;;;;;;17.48;11.50;;;7.10;99.90;;;;;;2087035;28;20044;-67
2023/05/04 00:16:50;;;;;;;16.25;11.25;;;7.10;99.90;;;;;;2093178;28;20020;-67
2023/05/04 00:17:51;;;;;;;15.23;11.38;;;7.10;99.90;;;;;;2091264;28;20048;-67
2023/05/04 00:18:51;;;;;;;15.57;11.05;;;7.10;99.90;;;;;;2091510;28;20086;-67
2023/05/04 00:19:52;;;;;;;15.15;10.98;;;7.10;99.90;;;;;;2091557;28;20044;-67
2023/05/04 00:20:53;;;;;;;16.27;10.60;;;7.10;99.90;;;;;;2091465;28;20025;-67
2023/05/04 00:21:53;;;;;;;17.88;11.70;;;7.10;99.90;;;;;;2090021;28;20083;-67
2023/05/04 00:22:54;;;;;;;17.38;11.65;;;7.10;99.90;;;;;;2090255;28;20020;-67
2023/05/04 00:23:54;;;;;;;14.75;11.18;;;7.00;99.90;;;;;;2090325;28;20029;-67
2023/05/04 00:24:55;;;;;;;13.85;10.90;;;7.00;99.90;;;;;;2089229;28;20121;-68
2023/05/04 00:25:58;;;;;;;16.67;10.93;;;7.00;99.90;;;;;;2091591;28;20028;-68
2023/05/04 00:26:58;;;;;;;17.67;10.82;;;7.00;99.90;;;;;;2091364;28;20044;-67
2023/05/04 00:27:59;;;;;;;17.38;11.45;;;7.00;99.90;;;;;;2091575;28;20374;-67
2023/05/04 00:29:00;;;;;;;18.42;11.95;;;7.00;99.90;;;;;;2090683;28;20336;-67
2023/05/04 00:30:00;;;;;;;18.58;11.55;;;7.00;99.90;;;;;;2086035;28;20037;-67
2023/05/04 00:31:01;;;;;;;18.27;11.77;;;6.90;99.90;;;;;;2097507;28;20427;-66
2023/05/04 00:32:01;;;;;;;16.83;11.57;;;6.90;99.90;;;;;;2093499;28;20529;-67
2023/05/04 00:33:02;;;;;;;19.30;11.48;;;6.90;99.90;;;;;;2082398;28;20032;-68
2023/05/04 00:34:03;;;;;;;18.95;11.57;;;6.90;99.90;;;;;;2092698;28;20048;-66
2023/05/04 00:35:04;;;;;;;17.80;11.70;;;6.90;99.90;;;;;;2087863;28;20033;-67
2023/05/04 00:36:05;;;;;;;18.90;11.98;;;6.90;99.90;;;;;;2098703;28;20341;-67
2023/05/04 00:37:06;;;;;;;14.70;11.45;;;6.90;99.90;;;;;;2107435;28;20023;-67
2023/05/04 00:38:06;;;;;;;16.55;10.85;;;6.90;99.90;;;;;;2090369;28;20040;-67
2023/05/04 00:39:07;;;;;;;14.20;10.80;;;6.90;99.90;;;;;;2088091;28;20172;-67
2023/05/04 00:40:09;;;;;;;16.30;11.32;;;6.90;99.90;;;;;;2098618;28;20036;-67
2023/05/04 00:41:09;;;;;;;15.43;11.15;;;6.80;99.90;;;;;;2102469;28;20424;-67
2023/05/04 00:42:10;;;;;;;15.80;11.02;;;6.80;99.90;;;;;;2086536;28;20428;-67
2023/05/04 00:43:10;;;;;;;16.50;11.25;;;6.80;99.90;;;;;;2091212;28;20036;-68
2023/05/04 00:44:11;;;;;;;17.17;11.45;;;6.80;99.90;;;;;;2088671;28;20411;-67
2023/05/04 00:45:13;;;;;;;18.58;11.50;;;6.80;99.90;;;;;;2090809;28;20040;-68
2023/05/04 00:46:14;;;;;;;14.25;11.20;;;6.80;99.90;;;;;;2077557;28;20512;-67
2023/05/04 00:47:15;;;;;;;17.30;11.70;;;6.80;99.90;;;;;;2077971;28;20029;-67
2023/05/04 00:48:16;;;;;;;18.00;11.60;;;6.80;99.90;;;;;;2089110;28;20052;-66
2023/05/04 00:49:17;;;;;;;17.17;11.73;;;6.80;99.90;;;;;;2085207;28;20423;-67
2023/05/04 00:50:18;;;;;;;16.17;11.02;;;6.80;99.90;;;;;;2089782;28;20029;-67
2023/05/04 00:51:21;;;;;;;17.52;11.73;;;6.70;99.90;;;;;;2105567;28;20252;-67
2023/05/04 00:52:23;;;;;;;16.10;11.52;;;6.70;99.90;;;;;;2092450;28;20032;-67
2023/05/04 00:53:24;;;;;;;15.88;11.18;;;6.70;99.90;;;;;;2086423;28;20116;-67
2023/05/04 00:54:27;;;;;;;19.08;11.85;;;6.70;99.90;;;;;;2090507;28;20032;-67
2023/05/04 00:55:28;;;;;;;16.92;11.30;;;6.70;99.90;;;;;;2073874;28;20040;-67
2023/05/04 00:56:29;;;;;;;16.92;11.68;;;6.70;99.90;;;;;;2085744;28;20039;-67
2023/05/04 00:57:30;;;;;;;17.23;11.45;;;6.70;99.90;;;;;;2091104;28;20036;-67
2023/05/04 00:58:31;;;;;;;18.45;11.98;;;6.70;99.90;;;;;;2090262;28;20024;-67
2023/05/04 00:59:32;;;;;;;17.70;11.65;;;6.70;99.90;;;;;;2086077;28;20473;-67
2023/05/04 01:00:32;;;;;;;18.58;11.65;;;6.70;99.90;;;;;;2086030;28;20035;-68
2023/05/04 01:01:33;;;;;;;17.85;11.63;;;6.60;99.90;;;;;;2092826;28;20111;-67
2023/05/04 01:02:34;;;;;;;18.48;11.73;;;6.60;99.90;;;;;;2087140;28;20435;-67
2023/05/04 01:03:34;;;;;;;16.25;11.80;;;6.60;99.90;;;;;;2087585;28;20418;-66
2023/05/04 01:04:35;;;;;;;15.57;11.48;;;6.60;99.90;;;;;;2088459;28;20035;-66
2023/05/04 01:05:41;;;;;;;16.15;11.75;;;6.60;99.90;;;;;;2092897;28;20038;-66
2023/05/04 01:06:47;;;;;;;16.48;11.80;;;6.60;99.90;;;;;;2084286;28;20033;-66
2023/05/04 01:07:59;;;;;;;17.80;11.63;;;6.60;99.90;;;;;;2090864;28;20090;-66
2023/05/04 01:09:16;;;;;;;15.70;11.07;;;6.60;99.90;;;;;;2077443;28;20131;-67
2023/05/04 01:10:51;;;;;;;14.38;11.25;;;6.60;99.90;;;;;;2094904;28;20028;-67
2023/05/04 01:12:05;;;;;;;16.10;11.20;;;6.60;99.90;;;;;;2094106;28;20070;-67
2023/05/04 01:13:10;;;;;;;15.23;10.75;;;6.60;99.90;;;;;;2080323;28;20460;-67
2023/05/04 01:14:13;;;;;;;15.40;11.15;;;6.50;99.90;;;;;;2094174;28;20554;-67
2023/05/04 01:15:14;;;;;;;16.05;11.65;;;6.50;99.90;;;;;;2093850;28;20498;-67
2023/05/04 01:16:15;;;;;;;16.63;11.48;;;6.50;99.90;;;;;;2080503;28;20033;-67
2023/05/04 01:17:16;;;;;;;14.80;11.43;;;6.50;99.90;;;;;;2077108;28;20037;-66
2023/05/04 01:18:17;;;;;;;15.27;11.32;;;6.50;99.90;;;;;;2090988;28;20028;-66
2023/05/04 01:19:17;;;;;;;14.60;11.35;;;6.50;99.90;;;;;;2088979;28;20055;-66
2023/05/04 01:20:18;;;;;;;13.65;11.05;;;6.50;99.90;;;;;;2084445;28;20033;-66
2023/05/04 01:21:18;;;;;;;16.83;11.55;;;6.50;99.90;;;;;;2089299;28;20043;-67
2023/05/04 01:22:20;;;;;;;15.20;10.65;;;6.50;99.90;;;;;;2085609;28;20091;-67
2023/05/04 01:23:21;;;;;;;15.73;11.52;;;6.50;99.90;;;;;;2086413;28;20036;-67
2023/05/04 01:24:23;;;;;;;13.98;11.23;;;6.50;99.90;;;;;;2088914;28;20108;-67
2023/05/04 01:25:31;;;;;;;18.35;11.10;;;6.40;99.90;;;;;;2091153;28;20070;-67
2023/05/04 01:26:38;;;;;;;16.05;11.90;;;6.50;99.90;;;;;;2084419;28;20029;-67
2023/05/04 01:27:46;;;;;;;16.48;11.77;;;6.40;99.90;;;;;;2080384;28;20133;-66
2023/05/04 01:28:53;;;;;;;15.10;11.32;;;6.40;99.90;;;;;;2086127;28;20017;-67
2023/05/04 01:30:01;;;;;;;13.93;10.98;;;6.40;99.90;;;;;;2088422;28;20033;-67
2023/05/04 01:31:04;;;;;;;18.50;12.00;;;6.40;99.90;;;;;;2087143;28;20040;-66
2023/05/04 01:32:06;;;;;;;15.18;11.45;;;6.40;99.90;;;;;;2087023;28;20028;-67
2023/05/04 01:33:08;;;;;;;14.52;11.43;;;6.40;99.90;;;;;;2087869;28;20566;-66
2023/05/04 01:34:12;;;;;;;14.98;11.48;;;6.40;99.90;;;;;;2087681;28;20107;-66
2023/05/04 01:35:13;;;;;;;16.67;12.05;;;6.40;99.90;;;;;;2087594;28;20120;-66
2023/05/04 01:36:14;;;;;;;16.48;11.82;;;6.40;99.90;;;;;;2088308;28;20021;-66
2023/05/04 01:37:15;;;;;;;15.48;11.63;;;6.40;99.90;;;;;;2086342;28;20688;-66
2023/05/04 01:38:16;;;;;;;18.23;12.38;;;6.40;99.90;;;;;;2090131;28;20052;-66
2023/05/04 01:39:17;;;;;;;17.27;11.88;;;6.40;99.90;;;;;;2090506;28;20606;-67
2023/05/04 01:40:17;;;;;;;16.75;12.20;;;6.40;99.90;;;;;;2089412;28;20029;-67
2023/05/04 01:41:18;;;;;;;17.75;12.07;;;6.40;99.90;;;;;;2087563;28;20029;-66
2023/05/04 01:42:19;;;;;;;16.35;11.98;;;6.40;99.90;;;;;;2086565;28;20024;-67
2023/05/04 01:43:19;;;;;;;17.50;12.00;;;6.40;99.90;;;;;;2088337;28;20012;-67
2023/05/04 01:44:20;;;;;;;15.90;11.98;;;6.40;99.90;;;;;;2086243;28;20452;-66
2023/05/04 01:45:21;;;;;;;17.92;12.55;;;6.40;99.90;;;;;;2086100;28;20476;-66
2023/05/04 01:46:21;;;;;;;18.20;12.27;;;6.40;99.90;;;;;;2090117;28;20039;-67
2023/05/04 01:47:22;;;;;;;16.13;12.20;;;6.40;99.90;;;;;;2090246;28;20028;-66
2023/05/04 01:48:23;;;;;;;16.73;11.85;;;6.40;99.90;;;;;;2090265;28;20082;-68
2023/05/04 01:49:23;;;;;;;15.93;12.07;;;6.40;99.90;;;;;;2088930;28;20032;-68
2023/05/04 01:50:24;;;;;;;18.00;12.35;;;6.40;99.90;;;;;;2083098;28;20069;-66
2023/05/04 01:51:25;;;;;;;19.02;11.80;;;6.40;99.90;;;;;;2087593;28;20063;-68
2023/05/04 01:52:25;;;;;;;17.08;11.80;;;6.40;99.90;;;;;;2083856;28;20128;-66
2023/05/04 01:53:26;;;;;;;15.77;11.73;;;6.30;99.90;;;;;;2090224;28;20029;-68
2023/05/04 01:54:27;;;;;;;16.40;12.18;;;6.40;99.90;;;;;;2090773;28;20036;-67
2023/05/04 01:55:27;;;;;;;16.13;12.23;;;6.40;99.90;;;;;;2086145;28;20033;-67
2023/05/04 01:56:28;;;;;;;18.63;12.15;;;6.30;99.90;;;;;;2085438;28;20036;-68
2023/05/04 01:57:28;;;;;;;16.55;11.98;;;6.30;99.90;;;;;;2088070;28;20052;-68
2023/05/04 01:58:29;;;;;;;18.00;12.30;;;6.30;99.90;;;;;;2081867;28;20028;-67
2023/05/04 01:59:30;;;;;;;17.25;11.52;;;6.30;99.90;;;;;;2078597;28;20547;-67
2023/05/04 02:00:31;;;;;;;16.10;11.55;;;6.30;99.90;;;;;;2088956;28;20059;-68
2023/05/04 02:01:34;;;;;;;17.27;11.85;;;6.30;99.90;;;;;;2087426;28;20552;-67
2023/05/04 02:02:34;;;;;;;15.20;11.57;;;6.30;99.90;;;;;;2094891;28;20089;-67
2023/05/04 02:03:35;;;;;;;15.05;11.23;;;6.30;99.90;;;;;;2096335;28;20439;-68
2023/05/04 02:04:36;;;;;;;14.43;11.32;;;6.30;99.90;;;;;;2076873;28;20052;-68
2023/05/04 02:05:37;;;;;;;13.73;11.15;;;6.20;99.90;;;;;;2081738;28;20119;-67
2023/05/04 02:06:37;;;;;;;16.05;11.50;;;6.30;99.90;;;;;;2084898;28;20025;-67
2023/05/04 02:07:38;;;;;;;15.38;10.90;;;6.30;99.90;;;;;;2083671;28;20156;-67
2023/05/04 02:08:38;;;;;;;14.52;10.98;;;6.30;99.90;;;;;;2081735;28;20324;-69
2023/05/04 02:09:39;;;;;;;14.52;11.13;;;6.30;99.90;;;;;;2077897;28;20083;-72
2023/05/04 02:10:40;;;;;;;16.08;11.20;;;6.20;99.90;;;;;;2086855;28;20016;-67
2023/05/04 02:11:40;;;;;;;14.90;10.73;;;6.20;99.90;;;;;;2087111;28;20115;-67
2023/05/04 02:12:41;;;;;;;15.85;10.55;;;6.20;99.90;;;;;;2087435;28;20067;-73
2023/05/04 02:13:42;;;;;;;14.98;11.23;;;6.20;99.90;;;;;;2085152;28;20048;-70
2023/05/04 02:14:42;;;;;;;14.13;11.32;;;6.20;99.90;;;;;;2089611;28;20543;-70
2023/05/04 02:15:43;;;;;;;14.70;10.70;;;6.20;99.90;;;;;;2093656;28;20032;-71
2023/05/04 02:16:44;;;;;;;17.45;11.23;;;6.20;99.90;;;;;;2091304;28;20119;-71
2023/05/04 02:17:45;;;;;;;13.55;10.88;;;6.20;99.90;;;;;;2086621;28;20388;-72
2023/05/04 02:18:46;;;;;;;15.18;10.70;;;6.20;99.90;;;;;;2099003;28;20051;-71
2023/05/04 02:19:46;;;;;;;16.55;11.40;;;6.20;99.90;;;;;;2104040;28;20542;-71
2023/05/04 02:20:48;;;;;;;14.63;10.98;;;6.20;99.90;;;;;;2088196;28;20028;-71
2023/05/04 02:21:49;;;;;;;15.88;10.48;;;6.20;99.90;;;;;;2088902;28;20056;-73
2023/05/04 02:22:49;;;;;;;15.88;10.98;;;6.20;99.90;;;;;;2087726;28;20082;-70
2023/05/04 02:23:52;;;;;;;14.25;10.55;;;6.20;99.90;;;;;;2101801;28;20020;-71
2023/05/04 02:24:52;;;;;;;15.02;11.43;;;6.20;99.90;;;;;;2103196;28;20560;-72
2023/05/04 02:25:54;;;;;;;16.50;11.15;;;6.20;99.90;;;;;;2090648;28;20483;-72
2023/05/04 02:26:54;;;;;;;16.48;11.43;;;6.10;99.90;;;;;;2087678;28;20511;-72
2023/05/04 02:27:55;;;;;;;15.77;11.75;;;6.20;99.90;;;;;;2078538;28;20188;-72
2023/05/04 02:28:55;;;;;;;14.77;11.23;;;6.10;99.90;;;;;;2084206;28;20017;-72
2023/05/04 02:29:59;;;;;;;14.48;11.80;;;6.10;99.90;;;;;;2088288;28;20111;-72
2023/05/04 02:30:59;;;;;;;15.10;11.57;;;6.10;99.90;;;;;;2094224;28;20024;-72
2023/05/04 02:32:00;;;;;;;15.38;11.82;;;6.10;99.90;;;;;;2102863;28;20513;-72
2023/05/04 02:33:01;;;;;;;14.85;11.85;;;6.10;99.90;;;;;;2087791;28;20041;-72
2023/05/04 02:34:01;;;;;;;15.80;11.93;;;6.10;99.90;;;;;;2090553;28;20093;-71
2023/05/04 02:35:04;;;;;;;14.27;11.10;;;6.10;99.90;;;;;;2085852;28;20029;-72
2023/05/04 02:36:04;;;;;;;15.43;11.48;;;6.00;99.90;;;;;;2085786;28;20033;-71
2023/05/04 02:37:05;;;;;;;15.90;11.43;;;6.00;99.90;;;;;;2088294;28;20549;-71
2023/05/04 02:38:06;;;;;;;13.50;11.50;;;6.00;99.90;;;;;;2074245;28;20069;-70
2023/05/04 02:39:06;;;;;;;17.75;12.07;;;6.00;99.90;;;;;;2078120;28;20463;-72
2023/05/04 02:40:08;;;;;;;16.45;11.50;;;6.00;99.90;;;;;;2081496;28;20056;-72
2023/05/04 02:41:09;;;;;;;17.10;12.00;;;6.00;99.90;;;;;;2094508;28;20024;-72
2023/05/04 02:42:10;;;;;;;18.30;12.10;;;5.90;99.90;;;;;;2102995;28;20047;-71
2023/05/04 02:43:10;;;;;;;18.42;12.75;;;5.90;99.90;;;;;;2087111;28;20028;-71
2023/05/04 02:44:11;;;;;;;15.65;12.02;;;5.90;99.90;;;;;;2081118;28;20025;-71
2023/05/04 02:45:12;;;;;;;16.70;12.27;;;5.90;99.90;;;;;;2076746;28;20086;-71
2023/05/04 02:46:13;;;;;;;15.02;12.27;;;5.90;99.90;;;;;;2091869;28;20031;-71
2023/05/04 02:47:13;;;;;;;16.95;12.23;;;5.90;99.90;;;;;;2090638;28;20029;-72
2023/05/04 02:48:14;;;;;;;18.60;12.30;;;5.80;99.90;;;;;;2089845;28;20388;-71
2023/05/04 02:49:14;;;;;;;17.15;12.43;;;5.80;99.90;;;;;;2088861;28;20386;-72
2023/05/04 02:50:15;;;;;;;16.90;12.48;;;5.80;99.90;;;;;;2103063;28;20056;-71
2023/05/04 02:51:17;;;;;;;17.90;12.38;;;5.80;99.90;;;;;;2103549;28;20020;-71
2023/05/04 02:52:18;;;;;;;16.33;12.10;;;5.80;99.90;;;;;;2085422;28;20041;-71
2023/05/04 02:53:18;;;;;;;15.77;12.40;;;5.70;99.90;;;;;;2084888;28;20091;-71
2023/05/04 02:54:19;;;;;;;15.82;11.95;;;5.70;99.90;;;;;;2087143;28;20120;-71
2023/05/04 02:55:19;;;;;;;17.77;12.38;;;5.70;99.90;;;;;;2078893;28;20033;-71
2023/05/04 02:56:20;;;;;;;16.70;12.10;;;5.70;99.90;;;;;;2065773;28;20030;-71
2023/05/04 02:57:21;;;;;;;15.85;11.98;;;5.70;99.90;;;;;;2086164;28;20036;-71
2023/05/04 02:58:21;;;;;;;19.48;12.52;;;5.60;99.90;;;;;;2087124;28;20051;-71
2023/05/04 02:59:22;;;;;;;18.33;12.45;;;5.60;99.90;;;;;;2089998;28;20032;-71
2023/05/04 03:00:23;;;;;;;16.63;12.07;;;5.60;99.90;;;;;;2087047;28;20067;-72
2023/05/04 03:01:23;;;;;;;16.75;12.32;;;5.60;99.90;;;;;;2089676;28;20054;-72
2023/05/04 03:02:24;;;;;;;16.73;12.45;;;5.60;99.90;;;;;;2085413;28;20048;-72
2023/05/04 03:03:25;;;;;;;16.80;12.52;;;5.60;99.90;;;;;;2092487;28;20028;-72
2023/05/04 03:04:26;;;;;;;15.20;12.13;;;5.50;99.90;;;;;;2091687;28;20456;-72
2023/05/04 03:05:26;;;;;;;19.13;12.30;;;5.50;99.90;;;;;;2084910;28;20025;-72
2023/05/04 03:06:27;;;;;;;16.52;12.07;;;5.50;99.90;;;;;;2085240;28;20973;-72
2023/05/04 03:07:28;;;;;;;16.40;11.80;;;5.50;99.90;;;;;;2089363;28;20032;-71
2023/05/04 03:08:29;;;;;;;17.92;11.95;;;5.50;99.90;;;;;;2090411;28;20094;-72
2023/05/04 03:09:29;;;;;;;16.42;11.70;;;5.50;99.90;;;;;;2086002;28;20017;-72
2023/05/04 03:10:30;;;;;;;17.95;12.07;;;5.50;99.90;;;;;;2076030;28;20507;-72
2023/05/04 03:11:30;;;;;;;17.35;11.98;;;5.50;99.90;;;;;;2076512;28;20025;-72
2023/05/04 03:12:31;;;;;;;16.35;11.77;;;5.50;99.90;;;;;;2089780;28;20033;-72
2023/05/04 03:13:31;;;;;;;18.67;12.63;;;5.40;99.90;;;;;;2087094;28;20036;-72
2023/05/04 03:14:32;;;;;;;16.17;12.23;;;5.40;99.90;;;;;;2081102;28;20702;-72
2023/05/04 03:15:32;;;;;;;15.30;11.70;;;5.40;99.90;;;;;;2087979;28;20032;-72
2023/05/04 03:16:33;;;;;;;16.45;11.85;;;5.40;99.90;;;;;;2084551;28;20144;-72
2023/05/04 03:17:33;;;;;;;15.27;11.98;;;5.40;99.90;;;;;;2087358;28;20031;-72
2023/05/04 03:18:35;;;;;;;17.45;12.27;;;5.40;99.90;;;;;;2076756;28;20025;-72
2023/05/04 03:19:36;;;;;;;15.18;12.57;;;5.40;99.90;;;;;;2076432;28;20033;-72
2023/05/04 03:20:38;;;;;;;16.63;12.40;;;5.40;99.90;;;;;;2076737;28;20025;-73
2023/05/04 03:21:38;;;;;;;15.50;12.50;;;5.30;99.90;;;;;;2088045;28;20515;-72
2023/05/04 03:22:39;;;;;;;19.90;12.00;;;5.30;99.90;;;;;;2089005;28;20055;-72
2023/05/04 03:23:39;;;;;;;16.92;12.23;;;5.30;99.90;;;;;;2079613;28;20270;-72
2023/05/04 03:24:40;;;;;;;17.23;12.65;;;5.30;99.90;;;;;;2086276;28;20804;-72
2023/05/04 03:25:41;;;;;;;18.50;12.80;;;5.30;99.90;;;;;;2088007;28;20469;-72
2023/05/04 03:26:41;;;;;;;16.17;12.55;;;5.30;99.90;;;;;;2084892;28;20061;-72
2023/05/04 03:27:42;;;;;;;16.23;13.05;;;5.30;99.90;;;;;;2086144;28;20041;-73
2023/05/04 03:28:42;;;;;;;18.60;13.10;;;5.30;99.90;;;;;;2078282;28;20124;-72
2023/05/04 03:29:43;;;;;;;19.20;12.55;;;5.30;99.90;;;;;;2081297;28;20512;-73
2023/05/04 03:30:43;;;;;;;16.70;13.02;;;5.30;99.90;;;;;;2082095;28;20051;-73
2023/05/04 03:31:44;;;;;;;18.30;13.32;;;5.30;99.90;;;;;;2089481;28;20564;-73
2023/05/04 03:32:48;;;;;;;17.42;12.80;;;5.30;99.90;;;;;;2087234;28;20127;-72
2023/05/04 03:33:49;;;;;;;17.25;12.30;;;5.20;99.90;;;;;;2079092;28;20029;-73
2023/05/04 03:34:50;;;;;;;20.65;12.52;;;5.20;99.90;;;;;;2075246;28;20587;-72
2023/05/04 03:35:51;;;;;;;15.40;12.40;;;5.20;99.90;;;;;;2085028;28;20484;-72
2023/05/04 03:36:52;;;;;;;16.48;12.30;;;5.20;99.90;;;;;;2084647;28;20329;-72
2023/05/04 03:37:53;;;;;;;16.40;12.25;;;5.30;99.90;;;;;;2087239;28;20480;-72
2023/05/04 03:38:53;;;;;;;18.10;12.52;;;5.20;99.90;;;;;;2086374;28;20055;-72
2023/05/04 03:39:54;;;;;;;17.00;12.20;;;5.20;99.90;;;;;;2086589;28;20029;-72
2023/05/04 03:40:55;;;;;;;17.60;12.77;;;5.20;99.90;;;;;;2093341;28;20582;-73
2023/05/04 03:41:57;;;;;;;19.17;13.15;;;5.20;99.90;;;;;;2078395;28;20993;-72
2023/05/04 03:42:57;;;;;;;17.23;12.00;;;5.20;99.90;;;;;;2076817;28;20108;-72
2023/05/04 03:43:58;;;;;;;20.05;12.45;;;5.20;99.90;;;;;;2095371;28;20577;-72
2023/05/04 03:44:58;;;;;;;17.77;13.25;;;5.20;99.90;;;;;;2095627;28;20111;-71
2023/05/04 03:45:59;;;;;;;19.55;13.32;;;5.20;99.90;;;;;;2088672;28;20514;-71
2023/05/04 03:46:59;;;;;;;17.90;12.65;;;5.20;99.90;;;;;;2086506;28;20020;-71
2023/05/04 03:48:00;;;;;;;19.77;13.60;;;5.20;99.90;;;;;;2086252;28;20064;-70
2023/05/04 03:49:01;;;;;;;16.45;12.50;;;5.10;99.90;;;;;;2088435;28;20120;-71
2023/05/04 03:50:03;;;;;;;18.50;13.10;;;5.10;99.90;;;;;;2081485;28;20065;-71
2023/05/04 03:51:05;;;;;;;17.63;13.10;;;5.20;99.90;;;;;;2083632;28;20053;-71
2023/05/04 03:52:06;;;;;;;16.88;13.10;;;5.20;99.90;;;;;;2087530;28;20155;-71
2023/05/04 03:53:06;;;;;;;18.92;13.52;;;5.20;99.90;;;;;;2079368;28;20024;-71
2023/05/04 03:54:07;;;;;;;19.52;13.93;;;5.20;99.90;;;;;;2079439;28;20536;-71
2023/05/04 03:55:09;;;;;;;20.75;14.50;;;5.20;99.90;;;;;;2096658;28;20503;-71
2023/05/04 03:56:10;;;;;;;18.48;14.13;;;5.20;99.90;;;;;;2094365;28;20021;-71
2023/05/04 03:57:10;;;;;;;18.10;13.70;;;5.20;99.90;;;;;;2087131;28;20075;-73
2023/05/04 03:58:11;;;;;;;20.38;13.73;;;5.20;99.90;;;;;;2091188;28;20555;-71
2023/05/04 03:59:12;;;;;;;19.52;13.35;;;5.20;99.90;;;;;;2097436;28;20021;-73
2023/05/04 04:00:14;;;;;;;20.17;13.98;;;5.20;99.90;;;;;;2085667;28;20565;-71
2023/05/04 04:01:23;;;;;;;;;;;5.20;99.90;;;;;;2088690;28;20055;-72
2023/05/04 04:02:24;;;;;;;19.60;14.00;;;5.20;99.90;;;;;;2087818;28;20254;-71
2023/05/04 04:03:25;;;;;;;20.45;13.48;;;5.30;99.90;;;;;;2090094;28;20424;-71
2023/05/04 04:04:26;;;;;;;19.55;13.57;;;5.30;99.90;;;;;;2091837;28;20032;-71
2023/05/04 04:05:27;;;;;;;24.65;14.50;;;5.30;99.90;;;;;;2090810;28;20032;-71
2023/05/04 04:06:28;;;;;;;21.38;14.13;;;5.20;99.90;;;;;;2086843;28;20029;-71
2023/05/04 04:07:29;;;;;;;19.75;14.13;;;5.30;99.90;;;;;;2088592;28;20599;-71
2023/05/04 04:08:30;;;;;;;15.50;12.80;;;5.30;99.90;;;;;;2083565;28;20031;-71
2023/05/04 04:09:30;;;;;;;20.25;12.70;;;5.30;99.90;;;;;;2080325;28;20029;-71
2023/05/04 04:10:31;;;;;;;18.58;13.60;;;5.30;99.90;;;;;;2086776;28;20061;-71
2023/05/04 04:11:32;;;;;;;20.48;14.23;;;5.40;99.90;;;;;;2086514;28;20048;-71
2023/05/04 04:12:32;;;;;;;21.23;13.52;;;5.40;99.90;;;;;;2089062;28;20258;-71
2023/05/04 04:13:33;;;;;;;20.60;14.02;;;5.50;99.90;;;;;;2083003;28;22676;-71
2023/05/04 04:14:33;;;;;;;18.58;13.07;;;5.50;99.90;;;;;;2087634;28;20453;-71
2023/05/04 04:15:34;;;;;;;18.42;13.75;;;5.50;99.90;;;;;;2087770;28;20139;-71
2023/05/04 04:16:34;;;;;;;19.38;13.82;;;5.50;99.90;;;;;;2086030;28;20480;-71
2023/05/04 04:17:35;;;;;;;18.30;13.05;;;5.50;99.90;;;;;;2090497;28;20474;-72
2023/05/04 04:18:35;;;;;;;19.08;12.98;;;5.50;99.90;;;;;;2086627;28;20029;-71
2023/05/04 04:19:36;;;;;;;18.65;13.35;;;5.60;99.90;;;;;;2086232;28;20032;-71
2023/05/04 04:20:36;;;;;;;17.05;12.90;;;5.60;99.90;;;;;;2090952;28;20123;-71
2023/05/04 04:21:37;;;;;;;20.73;12.70;;;5.70;99.90;;;;;;2093087;28;20077;-72
2023/05/04 04:22:38;;;;;;;17.63;12.60;;;5.80;99.90;;;;;;2086879;28;20497;-71
2023/05/04 04:23:38;;;;;;;17.88;12.32;;;6.10;99.90;;;;;;2089602;28;20028;-71
2023/05/04 04:24:39;;;;;;;17.08;11.90;;;6.40;99.90;;;;;;2079193;28;20025;-72
2023/05/04 04:25:40;;;;;;;16.90;11.50;;;6.80;99.90;;;;;;2087993;28;20032;-72
2023/05/04 04:26:41;;;;;;;16.83;11.50;;;7.20;99.90;;;;;;2086722;28;20084;-71
2023/05/04 04:27:41;;;;;;;15.48;11.02;;;7.50;99.90;;;;;;2086716;28;20037;-71
2023/05/04 04:28:43;;;;;;;18.88;11.55;;;7.90;99.90;;;;;;2093835;28;20032;-71
2023/05/04 04:29:44;;;;;;;15.13;10.82;;;8.20;99.90;;;;;;2080579;28;20025;-71
2023/05/04 04:30:45;;;;;;;16.83;10.60;;;8.50;99.90;;;;;;2075233;28;20094;-73
2023/05/04 04:31:45;;;;;;;16.38;10.90;;;8.70;99.90;;;;;;2084025;28;20036;-72
2023/05/04 04:32:46;;;;;;;17.42;11.07;;;9.00;99.90;;;;;;2090661;28;20032;-72
2023/05/04 04:33:49;;;;;;;20.45;10.80;;;9.20;99.90;;;;;;2088827;28;20130;-73
2023/05/04 04:34:49;;;;;;;14.90;10.23;;;9.40;99.90;;;;;;2090087;28;20028;-75
2023/05/04 04:35:51;;;;;;;17.58;10.63;;;9.70;99.90;;;;;;2091486;28;20025;-74
2023/05/04 04:36:51;;;;;;;16.70;10.70;;;9.90;99.90;;;;;;2086381;28;20021;-75
2023/05/04 04:37:52;;;;;;;16.38;10.60;;;10.00;99.90;;;;;;2089578;28;20029;-74
2023/05/04 04:38:52;;;;;;;15.40;10.07;;;10.10;99.90;;;;;;2088022;28;20546;-76
2023/05/04 04:39:53;;;;;;;13.70;9.70;;;10.30;99.90;;;;;;2094984;28;20352;-75
2023/05/04 04:40:53;;;;;;;16.35;10.10;;;10.40;99.90;;;;;;2095161;28;20026;-75
2023/05/04 04:41:54;;;;;;;13.43;9.60;;;10.60;99.90;;;;;;2089106;28;20032;-72
2023/05/04 04:42:55;;;;;;;14.80;9.63;;;10.70;99.90;;;;;;2083647;28;20071;-72
2023/05/04 04:43:55;;;;;;;14.68;9.65;;;10.90;99.90;;;;;;2086579;28;20033;-72
2023/05/04 04:44:56;;;;;;;16.50;9.80;;;11.00;99.90;;;;;;2087658;28;20086;-74
2023/05/04 04:45:57;;;;;;;14.18;9.27;;;11.10;99.90;;;;;;2089277;28;20071;-72
2023/05/04 04:46:58;;;;;;;15.57;9.68;;;11.20;99.90;;;;;;2087932;28;20493;-75
2023/05/04 04:47:58;;;;;;;14.32;9.45;;;11.40;99.90;;;;;;2086009;28;20037;-73
2023/05/04 04:48:59;;;;;;;14.00;9.13;;;11.50;99.90;;;;;;2087078;28;20025;-73
2023/05/04 04:49:59;;;;;;;14.50;9.20;;;11.60;99.90;;;;;;2090335;28;20029;-72
2023/05/04 04:51:00;;;;;;;12.60;9.43;;;11.70;99.90;;;;;;2087642;28;20021;-73
2023/05/04 04:52:01;;;;;;;15.48;8.90;;;11.80;99.90;;;;;;2083860;28;20040;-72
2023/05/04 04:53:02;;;;;;;12.43;8.63;;;11.90;99.90;;;;;;2085888;28;20032;-73
2023/05/04 04:54:03;;;;;;;13.68;9.32;;;12.10;99.90;;;;;;2091270;28;20093;-72
2023/05/04 04:55:03;;;;;;;12.43;9.23;;;12.10;99.90;;;;;;2090552;28;20419;-75
2023/05/04 04:56:06;;;;;;;17.20;9.25;;;12.20;99.90;;;;;;2088829;28;20040;-74
2023/05/04 04:57:07;;;;;;;11.32;8.38;;;12.30;99.90;;;;;;2086377;28;20356;-73
2023/05/04 04:58:08;;;;;;;13.73;9.30;;;12.30;99.90;;;;;;2086566;28;20558;-74
2023/05/04 04:59:09;;;;;;;11.25;8.70;;;12.40;99.90;;;;;;2090662;28;20098;-74
2023/05/04 05:00:10;;;;;;;13.32;8.30;;;12.40;99.90;;;;;;2087761;28;20028;-73
2023/05/04 05:01:16;;;;;;;10.32;8.77;;;12.50;99.90;;;;;;2093165;28;20111;-74
2023/05/04 05:02:18;;;;;;;12.20;9.00;;;12.60;99.90;;;;;;2096580;28;20023;-75
2023/05/04 05:03:19;;;;;;;15.68;10.43;;;12.60;99.90;;;;;;2095382;28;20117;-75
2023/05/04 05:04:21;;;;;;;12.63;9.60;;;12.70;99.90;;;;;;2090693;28;20596;-77
2023/05/04 05:05:21;;;;;;;11.55;8.85;;;12.80;99.90;;;;;;2075470;28;20083;-72
2023/05/04 05:06:22;;;;;;;13.48;8.25;;;12.80;99.90;;;;;;2079251;28;20082;-73
2023/05/04 05:07:23;;;;;;;12.07;8.50;;;12.90;99.90;;;;;;2092796;28;20045;-73
2023/05/04 05:08:23;;;;;;;17.83;10.70;;;12.90;99.90;;;;;;2074915;28;20397;-72
2023/05/04 05:09:24;;;;;;;15.73;9.13;;;13.00;99.90;;;;;;2083533;28;20028;-73
2023/05/04 05:10:25;;;;;;;11.85;8.38;;;13.20;99.90;;;;;;2090750;28;20043;-74
2023/05/04 05:11:25;;;;;;;12.38;8.18;;;13.20;99.90;;;;;;2105146;28;20031;-74
2023/05/04 05:12:26;;;;;;;10.15;8.32;;;13.30;99.90;;;;;;2099581;28;20035;-75
2023/05/04 05:13:27;;;;;;;10.38;7.43;;;13.40;99.40;;;;;;2082982;28;20063;-73
2023/05/04 05:14:27;;;;;;;13.00;8.43;;;13.50;99.00;;;;;;2085458;28;20094;-73
2023/05/04 05:15:28;;;;;;;15.80;9.65;;;13.60;98.10;;;;;;2090911;28;20479;-75